createdAt,value
2019-04-01T00:00:11.265Z,3.37
2019-04-01T00:02:41.790Z,4.07
2019-04-01T00:05:08.407Z,3.07
2019-04-01T00:07:37.474Z,3.87
2019-04-01T00:10:05.555Z,3.63
2019-04-01T00:12:33.111Z,3.50
2019-04-01T00:14:59.587Z,5.33
2019-04-01T00:17:29.358Z,3.23
2019-04-01T00:19:58.099Z,3.50
2019-04-01T00:22:26.815Z,2.63
2019-04-01T00:24:53.333Z,3.77
2019-04-01T00:27:22.255Z,3.10
2019-04-01T00:29:48.811Z,3.10
2019-04-01T00:32:19.760Z,3.43
2019-04-01T00:34:49.285Z,3.03
2019-04-01T00:37:16.194Z,3.37
2019-04-01T00:39:42.824Z,3.20
2019-04-01T00:42:35.289Z,2.43
2019-04-01T00:45:02.027Z,3.10
2019-04-01T00:47:28.526Z,2.53
2019-04-01T00:50:09.790Z,2.63
2019-04-01T00:52:38.417Z,2.23
2019-04-01T00:55:06.812Z,2.33
2019-04-01T00:57:33.665Z,2.77
2019-04-01T01:00:00.491Z,2.80
2019-04-01T01:02:27.131Z,2.13
2019-04-01T01:04:53.617Z,2.13
2019-04-01T01:07:20.532Z,1.90
2019-04-01T01:09:47.352Z,2.23
2019-04-01T01:12:14.258Z,2.40
2019-04-01T01:14:41.302Z,2.00
2019-04-01T01:17:08.239Z,1.80
2019-04-01T01:19:34.737Z,2.07
2019-04-01T01:22:01.356Z,2.10
2019-04-01T01:24:27.909Z,2.53
2019-04-01T01:26:54.424Z,2.73
2019-04-01T01:29:20.909Z,2.37
2019-04-01T01:31:47.439Z,1.93
2019-04-01T01:34:16.244Z,2.10
2019-04-01T01:36:42.989Z,1.93
2019-04-01T01:39:09.877Z,2.23
2019-04-01T01:41:38.717Z,2.33
2019-04-01T01:44:05.265Z,1.90
2019-04-01T01:46:31.817Z,2.43
2019-04-01T01:48:58.750Z,1.83
2019-04-01T01:51:25.227Z,1.90
2019-04-01T01:53:51.900Z,2.40
2019-04-01T01:56:18.395Z,2.27
2019-04-01T01:58:44.894Z,2.07
2019-04-01T02:01:11.531Z,2.43
2019-04-01T02:03:38.054Z,2.10
2019-04-01T02:06:05.344Z,1.60
2019-04-01T02:08:32.245Z,2.17
2019-04-01T02:10:58.744Z,1.53
2019-04-01T02:14:03.492Z,1.77
2019-04-01T02:16:30.124Z,1.90
2019-04-01T02:18:56.619Z,1.80
2019-04-01T02:21:23.114Z,1.77
2019-04-01T02:23:49.579Z,2.20
2019-04-01T02:26:18.452Z,1.60
2019-04-01T02:28:44.970Z,2.80
2019-04-01T02:31:11.715Z,2.20
2019-04-01T02:33:38.259Z,1.70
2019-04-01T02:36:07.214Z,1.80
2019-04-01T02:38:33.672Z,2.17
2019-04-01T02:41:01.644Z,1.97
2019-04-01T02:43:28.099Z,2.17
2019-04-01T02:45:56.387Z,1.90
2019-04-01T02:48:25.266Z,1.90
2019-04-01T02:50:51.817Z,2.10
2019-04-01T02:53:18.291Z,1.93
2019-04-01T02:55:47.940Z,2.40
2019-04-01T02:58:16.904Z,2.60
2019-04-01T03:00:44.927Z,1.93
2019-04-01T03:03:13.949Z,1.83
2019-04-01T03:05:40.445Z,1.60
2019-04-01T03:08:06.994Z,1.60
2019-04-01T03:10:36.960Z,1.67
2019-04-01T03:13:06.996Z,1.80
2019-04-01T03:15:36.572Z,1.90
2019-04-01T03:18:06.430Z,1.70
2019-04-01T03:20:36.030Z,2.23
2019-04-01T03:23:05.553Z,1.63
2019-04-01T03:25:32.113Z,1.80
2019-04-01T03:27:58.840Z,3.17
2019-04-01T03:30:27.645Z,1.43
2019-04-01T03:32:56.908Z,1.60
2019-04-01T03:35:23.812Z,2.10
2019-04-01T03:37:50.636Z,1.67
2019-04-01T03:40:17.252Z,1.70
2019-04-01T03:42:45.885Z,1.70
2019-04-01T03:45:12.421Z,1.57
2019-04-01T03:47:38.898Z,1.83
2019-04-01T03:50:05.826Z,1.80
2019-04-01T03:52:33.985Z,1.33
2019-04-01T03:55:00.786Z,2.03
2019-04-01T03:57:27.240Z,1.90
2019-04-01T03:59:55.673Z,1.70
2019-04-01T04:02:26.792Z,1.73
2019-04-01T04:04:50.663Z,1.97
2019-04-01T04:07:17.165Z,1.53
2019-04-01T04:09:45.545Z,1.73
2019-04-01T04:12:14.785Z,1.50
2019-04-01T04:14:41.274Z,1.87
2019-04-01T04:17:07.743Z,2.10
2019-04-01T04:19:35.361Z,1.20
2019-04-01T04:22:04.735Z,1.73
2019-04-01T04:24:31.270Z,1.50
2019-04-01T04:26:57.797Z,1.57
2019-04-01T04:29:26.482Z,1.37
2019-04-01T04:31:57.132Z,1.57
2019-04-01T04:34:23.842Z,1.87
2019-04-01T04:36:50.422Z,1.67
2019-04-01T04:39:17.129Z,2.03
2019-04-01T04:41:43.672Z,1.90
2019-04-01T04:44:10.225Z,1.70
2019-04-01T04:46:36.822Z,2.40
2019-04-01T04:49:03.380Z,1.53
2019-04-01T04:51:30.681Z,1.47
2019-04-01T04:53:57.336Z,4.03
2019-04-01T04:56:25.971Z,2.13
2019-04-01T04:58:53.392Z,1.63
2019-04-01T05:01:21.629Z,3.00
2019-04-01T05:03:48.666Z,1.93
2019-04-01T05:06:15.480Z,1.90
2019-04-01T05:08:44.423Z,2.70
2019-04-01T05:11:11.031Z,2.17
2019-04-01T05:13:38.086Z,2.37
2019-04-01T05:16:05.045Z,4.40
2019-04-01T05:18:31.651Z,3.20
2019-04-01T05:21:03.113Z,3.80
2019-04-01T05:23:29.754Z,4.37
2019-04-01T05:25:56.813Z,3.90
2019-04-01T05:28:27.239Z,6.33
2019-04-01T05:31:00.959Z,5.37
2019-04-01T05:33:29.756Z,5.97
2019-04-01T05:35:56.445Z,6.40
2019-04-01T05:38:23.087Z,6.03
2019-04-01T05:40:49.633Z,6.37
2019-04-01T05:43:19.090Z,7.77
2019-04-01T05:45:45.761Z,7.37
2019-04-01T05:48:13.833Z,6.43
2019-04-01T05:50:45.106Z,7.23
2019-04-01T05:53:13.443Z,7.57
2019-04-01T05:55:40.176Z,7.30
2019-04-01T05:58:07.049Z,7.57
2019-04-01T06:00:37.909Z,6.67
2019-04-01T06:03:07.636Z,6.53
2019-04-01T06:05:38.794Z,4.90
2019-04-01T06:08:05.297Z,4.87
2019-04-01T06:10:33.167Z,4.23
2019-04-01T06:13:00.022Z,4.30
2019-04-01T06:15:26.597Z,3.63
2019-04-01T06:17:53.079Z,3.57
2019-04-01T06:20:19.870Z,3.70
2019-04-01T06:22:46.483Z,3.43
2019-04-01T06:25:13.182Z,2.80
2019-04-01T06:27:40.160Z,3.20
2019-04-01T06:30:06.999Z,3.07
2019-04-01T06:32:35.831Z,2.53
2019-04-01T06:35:03.188Z,2.57
2019-04-01T06:37:29.816Z,2.83
2019-04-01T06:39:57.142Z,2.00
2019-04-01T06:42:34.925Z,2.20
2019-04-01T06:45:03.247Z,2.10
2019-04-01T06:47:35.094Z,2.43
2019-04-01T06:50:02.569Z,3.20
2019-04-01T06:52:29.591Z,3.10
2019-04-01T06:54:56.185Z,2.50
2019-04-01T06:57:23.860Z,2.47
2019-04-01T06:59:50.387Z,1.53
2019-04-01T07:02:17.019Z,2.07
2019-04-01T07:04:44.447Z,2.90
2019-04-01T07:07:19.200Z,2.50
2019-04-01T07:09:42.263Z,2.60
2019-04-01T07:12:09.306Z,3.20
2019-04-01T07:14:36.914Z,2.33
2019-04-01T07:17:04.384Z,2.53
2019-04-01T07:19:31.524Z,2.33
2019-04-01T07:21:58.575Z,2.27
2019-04-01T07:24:26.038Z,2.40
2019-04-01T07:26:54.254Z,2.07
2019-04-01T07:29:24.047Z,2.60
2019-04-01T07:31:56.002Z,2.47
2019-04-01T07:34:26.621Z,2.30
2019-04-01T07:36:53.458Z,2.00
2019-04-01T07:39:21.842Z,2.00
2019-04-01T07:41:49.266Z,2.40
2019-04-01T07:44:17.114Z,2.77
2019-04-01T07:46:45.187Z,2.03
2019-04-01T07:49:12.429Z,2.20
2019-04-01T07:51:39.932Z,2.47
2019-04-01T07:54:07.517Z,2.53
2019-04-01T07:56:35.419Z,2.80
2019-04-01T07:59:02.908Z,2.27
2019-04-01T08:01:30.442Z,1.87
2019-04-01T08:03:58.227Z,2.83
2019-04-01T08:06:25.536Z,2.03
2019-04-01T08:08:52.659Z,2.50
2019-04-01T08:11:19.245Z,2.80
2019-04-01T08:13:45.936Z,2.83
2019-04-01T08:16:12.860Z,2.67
2019-04-01T08:18:39.724Z,2.80
2019-04-01T08:21:06.584Z,2.03
2019-04-01T08:23:33.555Z,2.17
2019-04-01T08:26:00.226Z,2.37
2019-04-01T08:28:27.108Z,2.87
2019-04-01T08:30:53.650Z,2.20
2019-04-01T08:33:35.141Z,2.20
2019-04-01T08:36:16.480Z,1.90
2019-04-01T08:38:43.210Z,1.90
2019-04-01T08:41:09.810Z,2.53
2019-04-01T08:43:38.604Z,2.97
2019-04-01T08:46:05.102Z,2.47
2019-04-01T08:48:35.699Z,2.93
2019-04-01T08:51:02.817Z,2.70
2019-04-01T08:53:31.395Z,2.80
2019-04-01T08:56:00.862Z,2.37
2019-04-01T08:58:28.871Z,2.43
2019-04-01T09:00:56.157Z,2.63
2019-04-01T09:03:22.660Z,2.00
2019-04-01T09:05:49.366Z,2.83
2019-04-01T09:08:16.119Z,2.40
2019-04-01T09:10:42.870Z,2.27
2019-04-01T09:13:09.691Z,2.67
2019-04-01T09:15:36.502Z,2.10
2019-04-01T09:18:03.162Z,2.33
2019-04-01T09:20:29.761Z,2.40
2019-04-01T09:22:59.272Z,2.50
2019-04-01T09:25:28.533Z,2.90
2019-04-01T09:27:55.620Z,3.27
2019-04-01T09:30:22.261Z,2.60
2019-04-01T09:32:49.121Z,2.40
2019-04-01T09:35:16.844Z,2.27
2019-04-01T09:37:43.377Z,2.80
2019-04-01T09:40:11.283Z,2.20
2019-04-01T09:42:44.343Z,1.97
2019-04-01T09:45:14.442Z,2.53
2019-04-01T09:47:40.947Z,2.30
2019-04-01T09:50:07.670Z,2.90
2019-04-01T09:52:34.606Z,2.93
2019-04-01T09:55:06.137Z,3.10
2019-04-01T09:57:38.028Z,2.60
2019-04-01T10:00:05.464Z,2.60
2019-04-01T10:02:32.543Z,2.47
2019-04-01T10:04:59.322Z,2.90
2019-04-01T10:07:25.983Z,3.27
2019-04-01T10:09:52.553Z,3.00
2019-04-01T10:12:19.893Z,2.37
2019-04-01T10:14:46.844Z,2.73
2019-04-01T10:17:13.367Z,2.27
2019-04-01T10:19:40.058Z,2.50
2019-04-01T10:22:06.741Z,2.60
2019-04-01T10:24:33.437Z,3.00
2019-04-01T10:27:02.597Z,3.10
2019-04-01T10:29:29.151Z,3.30
2019-04-01T10:31:55.915Z,2.63
2019-04-01T10:34:22.775Z,2.60
2019-04-01T10:36:49.277Z,2.83
2019-04-01T10:39:15.860Z,3.30
2019-04-01T10:41:42.977Z,2.90
2019-04-01T10:44:09.518Z,2.57
2019-04-01T10:46:36.266Z,2.80
2019-04-01T10:49:05.175Z,3.07
2019-04-01T10:51:33.826Z,2.90
2019-04-01T10:54:00.387Z,2.63
2019-04-01T10:56:27.420Z,3.10
2019-04-01T10:58:54.240Z,2.70
2019-04-01T11:01:21.455Z,3.40
2019-04-01T11:03:56.023Z,3.13
2019-04-01T11:06:27.359Z,3.00
2019-04-01T11:08:54.736Z,3.93
2019-04-01T11:11:21.490Z,3.43
2019-04-01T11:13:51.595Z,3.23
2019-04-01T11:16:17.186Z,2.70
2019-04-01T11:18:43.720Z,3.60
2019-04-01T11:21:10.437Z,3.20
2019-04-01T11:23:37.128Z,4.10
2019-04-01T11:26:03.912Z,3.27
2019-04-01T11:28:30.581Z,3.30
2019-04-01T11:30:57.175Z,3.73
2019-04-01T11:33:27.221Z,3.00
2019-04-01T11:35:54.417Z,3.70
2019-04-01T11:38:21.036Z,3.47
2019-04-01T11:40:47.556Z,3.43
2019-04-01T11:43:14.422Z,3.40
2019-04-01T11:45:41.144Z,4.13
2019-04-01T11:48:09.818Z,3.90
2019-04-01T11:50:36.885Z,3.73
2019-04-01T11:53:03.500Z,4.30
2019-04-01T11:55:30.429Z,4.07
2019-04-01T11:57:57.261Z,3.83
2019-04-01T12:00:26.184Z,3.60
2019-04-01T12:02:52.429Z,3.63
2019-04-01T12:05:18.955Z,3.53
2019-04-01T12:07:45.796Z,3.90
2019-04-01T12:10:13.528Z,3.97
2019-04-01T12:12:43.866Z,4.13
2019-04-01T12:15:12.326Z,3.97
2019-04-01T12:17:41.591Z,3.80
2019-04-01T12:20:09.449Z,4.30
2019-04-01T12:22:36.370Z,3.77
2019-04-01T12:25:03.369Z,4.00
2019-04-01T12:27:32.647Z,4.50
2019-04-01T12:29:59.221Z,3.70
2019-04-01T12:32:31.275Z,4.10
2019-04-01T12:34:57.933Z,3.67
2019-04-01T12:37:24.641Z,3.87
2019-04-01T12:39:51.551Z,3.93
2019-04-01T12:42:18.231Z,3.87
2019-04-01T12:44:47.648Z,3.90
2019-04-01T12:47:17.002Z,4.30
2019-04-01T12:49:50.007Z,4.47
2019-04-01T12:52:18.214Z,3.77
2019-04-01T12:54:45.578Z,4.23
2019-04-01T12:57:12.462Z,4.97
2019-04-01T12:59:39.058Z,3.70
2019-04-01T13:02:07.592Z,4.07
2019-04-01T13:04:36.205Z,4.47
2019-04-01T13:07:05.089Z,4.03
2019-04-01T13:09:32.515Z,4.40
2019-04-01T13:11:59.075Z,4.13
2019-04-01T13:14:25.881Z,4.47
2019-04-01T13:16:52.740Z,5.13
2019-04-01T13:19:19.657Z,4.13
2019-04-01T13:21:46.417Z,4.63
2019-04-01T13:24:13.066Z,4.37
2019-04-01T13:26:39.606Z,4.30
2019-04-01T13:29:06.419Z,5.10
2019-04-01T13:31:33.019Z,4.93
2019-04-01T13:34:01.564Z,4.43
2019-04-01T13:36:28.135Z,4.13
2019-04-01T13:38:54.797Z,4.50
2019-04-01T13:41:24.978Z,4.50
2019-04-01T13:43:50.176Z,6.30
2019-04-01T13:46:17.091Z,5.40
2019-04-01T13:48:56.968Z,5.53
2019-04-01T13:51:12.121Z,5.10
2019-04-01T13:53:39.079Z,5.37
2019-04-01T13:56:10.175Z,5.17
2019-04-01T13:58:37.265Z,5.53
2019-04-01T14:01:04.331Z,5.67
2019-04-01T14:03:31.408Z,5.63
2019-04-01T14:05:57.912Z,5.77
2019-04-01T14:08:24.582Z,5.50
2019-04-01T14:10:51.116Z,6.20
2019-04-01T14:13:17.655Z,5.40
2019-04-01T14:15:45.468Z,5.73
2019-04-01T14:18:12.004Z,5.93
2019-04-01T14:20:38.844Z,6.20
2019-04-01T14:23:06.503Z,6.30
2019-04-01T14:25:34.806Z,5.57
2019-04-01T14:28:01.491Z,6.20
2019-04-01T14:30:28.190Z,6.40
2019-04-01T14:32:55.786Z,5.83
2019-04-01T14:35:23.857Z,6.30
2019-04-01T14:37:50.568Z,6.80
2019-04-01T14:40:17.932Z,6.43
2019-04-01T14:42:47.179Z,6.10
2019-04-01T14:45:14.020Z,5.80
2019-04-01T14:47:56.047Z,5.90
2019-04-01T14:50:10.461Z,6.83
2019-04-01T14:52:37.067Z,5.67
2019-04-01T14:55:03.964Z,5.00
2019-04-01T14:57:31.058Z,5.73
2019-04-01T14:59:57.703Z,6.07
2019-04-01T15:02:26.312Z,6.57
2019-04-01T15:04:52.964Z,5.73
2019-04-01T15:07:19.642Z,6.27
2019-04-01T15:09:46.802Z,6.33
2019-04-01T15:12:13.519Z,5.93
2019-04-01T15:14:41.347Z,6.47
2019-04-01T15:17:08.114Z,5.47
2019-04-01T15:19:34.682Z,5.23
2019-04-01T15:22:02.199Z,5.70
2019-04-01T15:24:28.781Z,5.90
2019-04-01T15:26:55.343Z,6.30
2019-04-01T15:29:24.299Z,5.70
2019-04-01T15:31:51.116Z,5.67
2019-04-01T15:34:18.608Z,5.67
2019-04-01T15:36:46.054Z,6.23
2019-04-01T15:39:14.803Z,5.37
2019-04-01T15:41:41.782Z,5.23
2019-04-01T15:44:09.235Z,5.67
2019-04-01T15:46:36.214Z,5.33
2019-04-01T15:49:02.886Z,5.63
2019-04-01T15:51:29.474Z,5.23
2019-04-01T15:53:56.151Z,4.07
2019-04-01T15:56:22.709Z,5.60
2019-04-01T15:58:50.978Z,4.77
2019-04-01T16:01:17.926Z,4.80
2019-04-01T16:03:44.530Z,4.73
2019-04-01T16:06:11.103Z,5.13
2019-04-01T16:08:37.700Z,4.30
2019-04-01T16:11:04.368Z,4.07
2019-04-01T16:13:31.348Z,4.70
2019-04-01T16:15:58.090Z,4.63
2019-04-01T16:18:25.012Z,3.53
2019-04-01T16:20:51.587Z,3.83
2019-04-01T16:23:22.475Z,4.30
2019-04-01T16:25:49.046Z,3.47
2019-04-01T16:28:15.735Z,3.87
2019-04-01T16:30:42.411Z,3.60
2019-04-01T16:33:09.700Z,3.60
2019-04-01T16:35:36.346Z,2.83
2019-04-01T16:38:03.083Z,3.40
2019-04-01T16:40:30.117Z,3.30
2019-04-01T16:42:57.519Z,3.03
2019-04-01T16:45:24.314Z,2.87
2019-04-01T16:47:53.468Z,3.60
2019-04-01T16:50:22.227Z,3.23
2019-04-01T16:52:55.543Z,2.73
2019-04-01T16:55:28.305Z,5.67
2019-04-01T16:57:55.256Z,2.33
2019-04-01T17:00:22.094Z,3.33
2019-04-01T17:02:50.524Z,2.73
2019-04-01T17:05:21.962Z,3.07
2019-04-01T17:07:48.470Z,3.07
2019-04-01T17:10:20.138Z,2.30
2019-04-01T17:12:46.906Z,2.60
2019-04-01T17:15:13.829Z,2.97
2019-04-01T17:17:42.597Z,2.10
2019-04-01T17:20:09.555Z,2.73
2019-04-01T17:22:36.226Z,2.57
2019-04-01T17:25:03.525Z,2.80
2019-04-01T17:27:30.198Z,2.80
2019-04-01T17:29:57.058Z,2.73
2019-04-01T17:32:23.693Z,2.70
2019-04-01T17:34:54.340Z,2.80
2019-04-01T17:37:24.956Z,3.73
2019-04-01T17:39:51.865Z,2.97
2019-04-01T17:42:18.630Z,2.50
2019-04-01T17:44:45.457Z,3.00
2019-04-01T17:47:12.678Z,2.67
2019-04-01T17:49:39.800Z,3.53
2019-04-01T17:52:06.360Z,2.13
2019-04-01T17:54:40.020Z,2.60
2019-04-01T17:57:06.236Z,2.93
2019-04-01T17:59:32.876Z,2.20
2019-04-01T18:01:59.569Z,2.67
2019-04-01T18:04:26.181Z,2.60
2019-04-01T18:06:52.790Z,2.80
2019-04-01T18:09:19.257Z,2.60
2019-04-01T18:11:47.084Z,3.03
2019-04-01T18:14:13.600Z,3.60
2019-04-01T18:16:42.254Z,2.93
2019-04-01T18:19:13.538Z,2.90
2019-04-01T18:21:40.036Z,2.30
2019-04-01T18:24:07.001Z,3.40
2019-04-01T18:26:33.820Z,3.47
2019-04-01T18:29:01.550Z,2.53
2019-04-01T18:31:29.666Z,2.93
2019-04-01T18:34:02.267Z,3.20
2019-04-01T18:36:29.043Z,2.87
2019-04-01T18:38:56.123Z,2.43
2019-04-01T18:41:23.802Z,2.50
2019-04-01T18:43:53.142Z,2.73
2019-04-01T18:46:23.301Z,3.07
2019-04-01T18:48:57.943Z,3.10
2019-04-01T18:51:24.788Z,3.43
2019-04-01T18:54:16.105Z,3.40
2019-04-01T18:56:42.895Z,2.30
2019-04-01T18:59:16.763Z,3.63
2019-04-01T19:01:46.322Z,3.63
2019-04-01T19:04:13.188Z,3.53
2019-04-01T19:06:42.766Z,3.50
2019-04-01T19:09:11.795Z,2.93
2019-04-01T19:11:38.705Z,3.90
2019-04-01T19:14:05.572Z,3.43
2019-04-01T19:16:35.534Z,3.43
2019-04-01T19:19:14.633Z,3.80
2019-04-01T19:21:42.082Z,4.00
2019-04-01T19:24:09.850Z,3.33
2019-04-01T19:26:36.529Z,2.77
2019-04-01T19:29:03.419Z,3.73
2019-04-01T19:31:30.283Z,2.57
2019-04-01T19:33:57.083Z,3.10
2019-04-01T19:36:23.598Z,3.37
2019-04-01T19:38:50.257Z,3.03
2019-04-01T19:41:17.239Z,3.50
2019-04-01T19:43:45.662Z,3.00
2019-04-01T19:46:12.244Z,2.87
2019-04-01T19:48:38.896Z,2.60
2019-04-01T19:51:05.599Z,2.77
2019-04-01T19:53:32.806Z,3.00
2019-04-01T19:56:00.939Z,2.83
2019-04-01T19:58:27.463Z,3.00
2019-04-01T20:00:54.080Z,3.67
2019-04-01T20:03:25.368Z,3.67
2019-04-01T20:05:53.176Z,4.17
2019-04-01T20:08:19.700Z,3.37
2019-04-01T20:10:53.488Z,4.00
2019-04-01T20:13:20.067Z,4.57
2019-04-01T20:15:46.738Z,3.27
2019-04-01T20:18:13.377Z,3.70
2019-04-01T20:20:41.597Z,3.87
2019-04-01T20:23:08.469Z,4.17
2019-04-01T20:25:39.572Z,3.30
2019-04-01T20:28:06.154Z,3.37
2019-04-01T20:30:32.918Z,3.43
2019-04-01T20:33:17.075Z,2.77
2019-04-01T20:35:37.886Z,3.23
2019-04-01T20:38:04.482Z,2.90
2019-04-01T20:40:30.974Z,2.53
2019-04-01T20:42:57.940Z,3.43
2019-04-01T20:45:24.470Z,4.07
2019-04-01T20:47:51.635Z,3.50
2019-04-01T20:50:18.531Z,3.30
2019-04-01T20:52:45.171Z,3.60
2019-04-01T20:55:13.394Z,3.60
2019-04-01T20:57:42.762Z,3.73
2019-04-01T21:00:09.920Z,3.90
2019-04-01T21:02:37.790Z,3.27
2019-04-01T21:05:05.131Z,3.80
2019-04-01T21:07:32.088Z,4.53
2019-04-01T21:09:58.618Z,3.10
2019-04-01T21:12:25.117Z,3.90
2019-04-01T21:14:51.990Z,4.10
2019-04-01T21:17:18.565Z,3.17
2019-04-01T21:19:45.302Z,3.63
2019-04-01T21:22:11.851Z,3.67
2019-04-01T21:24:38.375Z,3.23
2019-04-01T21:27:05.361Z,3.27
2019-04-01T21:29:31.998Z,3.47
2019-04-01T21:31:58.534Z,3.27
2019-04-01T21:34:25.071Z,3.70
2019-04-01T21:36:51.995Z,3.80
2019-04-01T21:39:18.493Z,3.87
2019-04-01T21:41:45.039Z,3.50
2019-04-01T21:44:12.305Z,3.20
2019-04-01T21:46:39.121Z,4.17
2019-04-01T21:49:05.627Z,3.60
2019-04-01T21:51:33.163Z,3.60
2019-04-01T21:54:17.468Z,3.80
2019-04-01T21:56:43.988Z,3.63
2019-04-01T21:59:10.502Z,3.73
2019-04-01T22:01:37.407Z,4.00
2019-04-01T22:04:15.057Z,4.83
2019-04-01T22:06:41.865Z,3.93
2019-04-01T22:09:10.753Z,4.23
2019-04-01T22:11:37.305Z,5.10
2019-04-01T22:14:04.124Z,4.50
2019-04-01T22:16:30.643Z,4.53
2019-04-01T22:18:57.165Z,4.23
2019-04-01T22:21:23.673Z,3.97
2019-04-01T22:23:50.220Z,4.47
2019-04-01T22:26:16.793Z,3.73
2019-04-01T22:28:43.346Z,3.90
2019-04-01T22:31:10.151Z,3.77
2019-04-01T22:33:37.020Z,3.90
2019-04-01T22:36:03.596Z,3.57
2019-04-01T22:38:30.359Z,4.17
2019-04-01T22:40:56.961Z,4.50
2019-04-01T22:46:03.786Z,4.43
2019-04-01T22:48:30.280Z,3.80
2019-04-01T22:50:57.765Z,3.97
2019-04-01T22:53:24.381Z,4.47
2019-04-01T22:55:51.023Z,4.57
2019-04-01T22:58:17.636Z,4.70
2019-04-01T23:00:44.127Z,3.90
2019-04-01T23:03:11.893Z,5.03
2019-04-01T23:05:38.544Z,4.70
2019-04-01T23:08:05.457Z,4.33
2019-04-01T23:10:32.306Z,4.53
2019-04-01T23:13:00.878Z,6.07
2019-04-01T23:15:27.516Z,4.43
2019-04-01T23:17:54.035Z,4.63
2019-04-01T23:20:20.716Z,4.30
2019-04-01T23:22:47.487Z,4.33
2019-04-01T23:25:14.035Z,4.10
2019-04-01T23:27:40.941Z,4.50
2019-04-01T23:30:08.799Z,3.90
2019-04-01T23:32:35.334Z,4.53
2019-04-01T23:35:03.911Z,4.33
2019-04-01T23:37:30.577Z,4.73
2019-04-01T23:39:57.159Z,3.90
2019-04-01T23:42:23.729Z,4.53
2019-04-01T23:44:51.297Z,4.20
2019-04-01T23:47:18.876Z,4.00
2019-04-01T23:49:45.393Z,4.07
2019-04-01T23:52:11.963Z,5.07
2019-04-01T23:54:38.529Z,4.63
2019-04-01T23:57:05.150Z,5.13
2019-04-01T23:59:31.689Z,4.93
